Time;durP1;ratioP1;P1;durP2;ratioP2;P2;SDS_P1;SDS_P2;PMS_P1;PMS_P2;Temp;Humidity;BMP_temperature;BMP_pressure;BME280_temperature;BME280_humidity;BME280_pressure;Samples;Min_cycle;Max_cycle;Signal;HPM_P1;HPM_P2
2021/12/28 00:02:23;;;;;;;5.20;4.20;;;5.30;99.90;;;;;;5030286;28;20017;-76
2021/12/28 00:04:49;;;;;;;6.53;4.10;;;5.30;99.90;;;;;;5029964;28;20356;-77
2021/12/28 00:07:14;;;;;;;6.93;4.33;;;5.40;99.90;;;;;;5030101;28;20029;-77
2021/12/28 00:09:41;;;;;;;6.43;4.00;;;5.40;99.90;;;;;;5029694;28;20053;-77
2021/12/28 00:12:07;;;;;;;6.30;4.00;;;5.40;99.90;;;;;;5028695;28;20417;-77
2021/12/28 00:14:37;;;;;;;5.00;3.53;;;5.40;99.90;;;;;;5030047;28;20440;-77
2021/12/28 00:19:47;;;;;;;4.43;3.70;;;5.40;99.90;;;;;;5030188;28;20036;-77
2021/12/28 00:22:13;;;;;;;4.40;3.33;;;5.40;99.90;;;;;;5029979;28;20034;-75
2021/12/28 00:24:39;;;;;;;4.17;3.20;;;5.50;99.90;;;;;;5029709;28;20032;-76
2021/12/28 00:27:07;;;;;;;5.97;3.00;;;5.40;99.90;;;;;;5028750;28;20025;-77
2021/12/28 00:29:33;;;;;;;5.87;3.33;;;5.50;99.90;;;;;;5029984;28;20024;-76
2021/12/28 00:31:58;;;;;;;5.03;3.23;;;5.40;99.90;;;;;;5028531;28;20032;-76
2021/12/28 00:34:24;;;;;;;6.30;3.60;;;5.40;99.90;;;;;;5030849;28;20543;-77
2021/12/28 00:36:49;;;;;;;5.50;3.50;;;5.40;99.90;;;;;;5032569;28;20029;-76
2021/12/28 00:39:15;;;;;;;5.80;3.60;;;5.40;99.90;;;;;;5033659;28;20587;-77
2021/12/28 00:41:41;;;;;;;7.73;3.37;;;5.40;99.90;;;;;;5032078;28;20442;-76
2021/12/28 00:44:08;;;;;;;9.37;4.03;;;5.40;99.90;;;;;;5033801;28;20129;-77
2021/12/28 00:46:34;;;;;;;5.00;3.13;;;5.40;99.90;;;;;;5033945;28;20036;-76
2021/12/28 00:48:59;;;;;;;5.83;3.30;;;5.40;99.90;;;;;;5033669;28;20777;-77
2021/12/28 00:51:25;;;;;;;3.87;2.90;;;5.30;99.90;;;;;;5033646;28;20368;-77
2021/12/28 00:53:51;;;;;;;6.23;3.53;;;5.30;99.90;;;;;;5033170;28;20022;-76
2021/12/28 00:56:16;;;;;;;6.40;2.83;;;5.30;99.90;;;;;;5033564;28;20036;-77
2021/12/28 00:58:42;;;;;;;6.00;3.07;;;5.30;99.90;;;;;;5033228;28;20532;-76
2021/12/28 01:01:08;;;;;;;3.57;2.70;;;5.30;99.90;;;;;;5033617;28;20038;-77
2021/12/28 01:03:36;;;;;;;4.03;2.90;;;5.30;99.90;;;;;;5031706;28;20186;-77
2021/12/28 01:06:03;;;;;;;4.70;2.57;;;5.30;99.90;;;;;;5031791;28;20488;-76
2021/12/28 01:08:28;;;;;;;5.87;3.10;;;5.30;99.90;;;;;;5031572;28;20029;-77
2021/12/28 01:10:54;;;;;;;6.80;3.10;;;5.20;99.90;;;;;;5032335;28;20144;-77
2021/12/28 01:13:21;;;;;;;7.03;2.40;;;5.20;99.90;;;;;;5032865;28;20025;-77
2021/12/28 01:15:49;;;;;;;8.17;3.13;;;5.10;99.90;;;;;;5032958;28;20060;-76
2021/12/28 01:18:14;;;;;;;8.10;2.73;;;5.10;99.90;;;;;;5032814;28;20122;-76
2021/12/28 01:20:42;;;;;;;5.13;3.13;;;5.00;99.90;;;;;;5031751;28;20072;-76
2021/12/28 01:23:08;;;;;;;7.63;2.70;;;5.00;99.90;;;;;;5031541;28;20040;-77
2021/12/28 01:25:34;;;;;;;7.27;2.77;;;4.90;99.90;;;;;;5032869;28;20044;-76
2021/12/28 01:28:00;;;;;;;7.13;2.80;;;4.80;99.90;;;;;;5048492;28;20030;-77
2021/12/28 01:30:27;;;;;;;3.47;2.67;;;4.80;99.90;;;;;;5034024;28;20477;-76
2021/12/28 01:32:53;;;;;;;7.00;2.63;;;4.80;99.90;;;;;;5033752;28;20026;-77
2021/12/28 01:35:19;;;;;;;13.00;3.17;;;4.70;99.90;;;;;;5034005;28;20056;-77
2021/12/28 01:37:46;;;;;;;7.57;2.80;;;4.70;99.90;;;;;;5034047;28;20018;-77
2021/12/28 01:40:18;;;;;;;9.40;2.83;;;4.60;99.90;;;;;;5034417;28;20025;-77
2021/12/28 01:43:17;;;;;;;6.40;2.87;;;4.60;99.90;;;;;;5025901;28;20025;-76
2021/12/28 01:45:52;;;;;;;6.80;2.97;;;4.50;99.90;;;;;;5030823;28;20371;-77
2021/12/28 01:48:25;;;;;;;8.32;3.75;;;4.40;99.90;;;;;;5031592;28;20052;-76
2021/12/28 01:50:54;;;;;;;7.07;3.50;;;4.30;99.90;;;;;;5033310;28;20065;-78
2021/12/28 01:53:20;;;;;;;8.33;3.13;;;4.30;99.90;;;;;;5032689;28;20513;-77
2021/12/28 01:55:48;;;;;;;8.77;2.90;;;4.20;99.90;;;;;;5033021;28;20061;-77
2021/12/28 01:58:14;;;;;;;6.77;2.17;;;4.10;99.90;;;;;;5032601;28;20036;-76
2021/12/28 02:00:42;;;;;;;8.67;2.40;;;4.10;99.90;;;;;;5032645;28;20441;-76
2021/12/28 02:03:14;;;;;;;3.97;2.03;;;4.00;99.90;;;;;;5030932;28;20044;-76
2021/12/28 02:05:40;;;;;;;4.93;2.37;;;4.00;99.90;;;;;;5031285;28;20203;-76
2021/12/28 02:08:07;;;;;;;9.90;2.60;;;4.00;99.90;;;;;;5031235;28;20141;-77
2021/12/28 02:10:34;;;;;;;8.67;4.23;;;3.90;99.90;;;;;;5032191;28;20045;-76
2021/12/28 02:13:00;;;;;;;9.47;3.70;;;3.90;99.90;;;;;;5031030;28;20810;-76
2021/12/28 02:15:25;;;;;;;18.73;5.87;;;3.90;99.90;;;;;;5030876;28;20038;-76
2021/12/28 02:17:51;;;;;;;15.40;5.90;;;3.90;99.90;;;;;;5032057;28;20039;-76
2021/12/28 02:20:19;;;;;;;13.50;4.50;;;3.90;99.90;;;;;;5031997;28;20026;-76
2021/12/28 02:22:45;;;;;;;8.90;3.67;;;3.90;99.90;;;;;;5030723;28;20036;-76
2021/12/28 02:25:13;;;;;;;10.07;2.30;;;3.90;99.90;;;;;;5031941;28;20079;-77
2021/12/28 02:27:39;;;;;;;8.17;2.40;;;3.90;99.90;;;;;;5031535;28;20351;-76
2021/12/28 02:30:09;;;;;;;7.27;2.43;;;3.90;99.90;;;;;;5031832;28;20060;-76
2021/12/28 02:32:36;;;;;;;10.67;2.57;;;3.90;99.90;;;;;;5031478;28;20380;-76
2021/12/28 02:35:02;;;;;;;8.33;2.40;;;3.90;99.90;;;;;;5031521;28;20071;-77
2021/12/28 02:37:27;;;;;;;8.20;2.37;;;3.80;99.90;;;;;;5030493;28;20065;-77
2021/12/28 02:39:53;;;;;;;9.07;2.43;;;3.80;99.90;;;;;;5031273;28;20402;-77
2021/12/28 02:42:22;;;;;;;9.50;2.50;;;3.80;99.90;;;;;;5030727;28;20462;-77
2021/12/28 02:45:02;;;;;;;6.10;1.90;;;3.80;99.90;;;;;;5030096;28;20033;-77
2021/12/28 02:47:28;;;;;;;9.67;2.70;;;3.70;99.90;;;;;;5031176;28;20036;-76
2021/12/28 02:49:54;;;;;;;8.47;2.20;;;3.70;99.90;;;;;;5031304;28;20021;-77
2021/12/28 02:52:20;;;;;;;9.83;2.50;;;3.70;99.90;;;;;;5046410;28;20040;-77
2021/12/28 02:54:46;;;;;;;10.60;2.97;;;3.60;99.90;;;;;;5031390;28;20044;-76
2021/12/28 02:57:12;;;;;;;8.93;2.23;;;3.50;99.90;;;;;;5031053;28;20029;-75
2021/12/28 02:59:49;;;;;;;5.63;2.27;;;3.50;99.90;;;;;;5031056;28;20112;-76
2021/12/28 03:02:15;;;;;;;10.70;1.87;;;3.40;99.90;;;;;;5046143;28;20083;-77
2021/12/28 03:04:41;;;;;;;5.67;2.10;;;3.40;99.90;;;;;;5030886;28;20064;-77
2021/12/28 03:07:07;;;;;;;5.93;2.17;;;3.40;99.90;;;;;;5030817;28;20469;-76
2021/12/28 03:09:32;;;;;;;10.23;2.33;;;3.30;99.90;;;;;;5030789;28;20212;-76
2021/12/28 03:11:58;;;;;;;10.33;2.83;;;3.30;99.90;;;;;;5031004;28;20030;-76
2021/12/28 03:14:23;;;;;;;6.83;2.30;;;3.30;99.90;;;;;;5030687;28;20108;-76
2021/12/28 03:16:49;;;;;;;15.00;2.80;;;3.30;99.90;;;;;;5030919;28;20072;-76
2021/12/28 03:19:15;;;;;;;6.33;2.17;;;3.30;99.90;;;;;;5030412;28;20029;-78
2021/12/28 03:21:41;;;;;;;13.97;2.30;;;3.30;99.90;;;;;;5045999;28;20443;-77
2021/12/28 03:24:08;;;;;;;10.13;2.70;;;3.30;99.90;;;;;;5030517;28;20533;-76
2021/12/28 03:26:37;;;;;;;10.30;2.47;;;3.30;99.90;;;;;;5030724;28;20021;-76
2021/12/28 03:29:04;;;;;;;12.40;2.57;;;3.30;99.90;;;;;;5029358;28;20028;-77
2021/12/28 03:31:29;;;;;;;7.97;2.70;;;3.30;99.90;;;;;;5030452;28;20029;-77
2021/12/28 03:33:55;;;;;;;9.00;2.90;;;3.30;99.90;;;;;;5030496;28;20049;-76
2021/12/28 03:36:24;;;;;;;9.83;2.40;;;3.40;99.90;;;;;;5030632;28;20026;-76
2021/12/28 03:38:50;;;;;;;8.33;2.07;;;3.50;99.90;;;;;;5030273;28;20378;-77
2021/12/28 03:41:17;;;;;;;7.33;2.33;;;3.50;99.90;;;;;;5029990;28;20086;-76
2021/12/28 03:43:46;;;;;;;8.47;2.40;;;3.60;99.90;;;;;;5029995;28;20106;-76
2021/12/28 03:46:12;;;;;;;5.73;2.10;;;3.60;99.90;;;;;;5030723;28;20030;-76
2021/12/28 03:48:38;;;;;;;7.87;2.30;;;3.60;99.90;;;;;;5030015;28;20033;-78
2021/12/28 03:51:06;;;;;;;7.77;2.13;;;3.70;99.90;;;;;;5030230;28;20029;-77
2021/12/28 03:53:33;;;;;;;7.33;2.07;;;3.70;99.90;;;;;;5028809;28;20026;-77
2021/12/28 03:55:59;;;;;;;9.93;2.33;;;3.60;99.90;;;;;;5030250;28;20029;-77
2021/12/28 03:58:24;;;;;;;6.97;2.13;;;3.70;99.90;;;;;;5028611;28;20144;-78
2021/12/28 04:00:50;;;;;;;8.87;2.00;;;3.70;99.90;;;;;;5030207;28;20029;-77
2021/12/28 04:03:16;;;;;;;5.33;2.37;;;3.60;99.90;;;;;;5030206;28;20041;-77
2021/12/28 04:05:44;;;;;;;7.13;2.33;;;3.60;99.90;;;;;;5029214;28;20132;-77
2021/12/28 04:08:10;;;;;;;6.13;2.23;;;3.60;99.90;;;;;;5029946;28;20022;-77
2021/12/28 04:10:51;;;;;;;6.17;2.07;;;3.50;99.90;;;;;;5029739;28;20074;-77
2021/12/28 04:13:18;;;;;;;10.53;2.50;;;3.50;99.90;;;;;;5029683;28;20026;-77
2021/12/28 04:15:44;;;;;;;10.50;2.47;;;3.50;99.90;;;;;;5030158;28;20040;-77
2021/12/28 04:18:10;;;;;;;17.77;3.97;;;3.40;99.90;;;;;;5029967;28;20037;-77
2021/12/28 04:20:35;;;;;;;8.27;2.93;;;3.40;99.90;;;;;;5028789;28;20148;-77
2021/12/28 04:23:01;;;;;;;9.97;2.93;;;3.40;99.90;;;;;;5029836;28;20053;-77
2021/12/28 04:25:26;;;;;;;8.87;2.47;;;3.40;99.90;;;;;;5030171;28;20049;-76
2021/12/28 04:27:52;;;;;;;9.07;2.50;;;3.40;99.90;;;;;;5028364;28;20657;-77
2021/12/28 04:30:18;;;;;;;10.33;2.37;;;3.30;99.90;;;;;;5030005;28;20453;-77
2021/12/28 04:32:44;;;;;;;8.27;2.53;;;3.30;99.90;;;;;;5030008;28;20029;-77
2021/12/28 04:35:11;;;;;;;4.67;2.50;;;3.30;99.90;;;;;;5028834;28;20025;-77
2021/12/28 04:37:37;;;;;;;6.87;2.40;;;3.30;99.90;;;;;;5029909;28;20075;-77
2021/12/28 04:40:05;;;;;;;7.50;2.30;;;3.30;99.90;;;;;;5030027;28;20029;-75
2021/12/28 04:42:31;;;;;;;6.97;2.30;;;3.20;99.90;;;;;;5038444;28;20026;-76
2021/12/28 04:44:57;;;;;;;4.57;2.23;;;3.20;99.90;;;;;;5029968;28;20489;-76
2021/12/28 04:47:23;;;;;;;5.57;2.43;;;3.10;99.90;;;;;;5028264;28;20394;-76
2021/12/28 04:49:48;;;;;;;8.07;2.97;;;3.10;99.90;;;;;;5030068;28;20087;-77
2021/12/28 04:52:14;;;;;;;5.30;2.30;;;3.00;99.90;;;;;;5029905;28;20136;-77
2021/12/28 04:54:40;;;;;;;5.90;2.40;;;2.90;99.90;;;;;;5029861;28;20075;-76
2021/12/28 04:57:06;;;;;;;4.77;2.13;;;2.90;99.90;;;;;;5030027;28;20029;-76
2021/12/28 04:59:32;;;;;;;4.17;1.93;;;2.80;99.90;;;;;;5029759;28;20029;-75
2021/12/28 05:01:58;;;;;;;8.27;2.23;;;2.80;99.90;;;;;;5028333;28;20033;-77
2021/12/28 05:04:25;;;;;;;5.93;2.47;;;2.70;99.90;;;;;;5029389;28;20467;-77
2021/12/28 05:06:52;;;;;;;6.47;2.23;;;2.70;99.90;;;;;;5029638;28;20451;-76
2021/12/28 05:09:18;;;;;;;5.13;2.00;;;2.60;99.90;;;;;;5027898;28;20056;-76
2021/12/28 05:11:45;;;;;;;6.00;2.00;;;2.60;99.90;;;;;;5029580;28;20018;-76
2021/12/28 05:14:11;;;;;;;7.63;2.23;;;2.60;99.90;;;;;;5029371;28;20025;-77
2021/12/28 05:16:37;;;;;;;6.83;2.43;;;2.50;99.90;;;;;;5029884;28;20488;-76
2021/12/28 05:19:05;;;;;;;5.63;2.67;;;2.50;99.90;;;;;;5029474;28;20029;-76
2021/12/28 05:21:31;;;;;;;7.47;2.80;;;2.40;99.90;;;;;;5031184;28;20363;-77
2021/12/28 05:23:58;;;;;;;8.63;2.63;;;2.40;99.90;;;;;;5032858;28;20079;-76
2021/12/28 05:26:24;;;;;;;7.90;2.50;;;2.40;99.90;;;;;;5032256;28;20025;-77
2021/12/28 05:28:50;;;;;;;7.53;2.37;;;2.40;99.90;;;;;;5033070;28;20040;-77
2021/12/28 05:31:16;;;;;;;8.23;2.70;;;2.40;99.90;;;;;;5032984;28;20026;-77
2021/12/28 05:33:42;;;;;;;6.63;2.30;;;2.40;99.90;;;;;;5032740;28;20052;-77
2021/12/28 05:36:10;;;;;;;7.00;2.60;;;2.40;99.90;;;;;;5033044;28;20060;-76
2021/12/28 05:38:36;;;;;;;9.20;3.80;;;2.50;99.90;;;;;;5032660;28;20033;-76
2021/12/28 05:41:02;;;;;;;5.60;2.70;;;2.40;99.90;;;;;;5032871;28;20079;-77
2021/12/28 05:43:28;;;;;;;5.93;2.50;;;2.40;99.90;;;;;;5031761;28;20109;-77
2021/12/28 05:45:54;;;;;;;7.07;2.40;;;2.40;99.90;;;;;;5032763;28;20112;-77
2021/12/28 05:48:19;;;;;;;10.20;3.27;;;2.40;99.90;;;;;;5033026;28;20462;-76
2021/12/28 05:50:45;;;;;;;6.80;3.77;;;2.40;99.90;;;;;;5032555;28;20063;-77
2021/12/28 05:53:10;;;;;;;9.63;3.50;;;2.40;99.90;;;;;;5032448;28;20034;-77
2021/12/28 05:55:36;;;;;;;6.23;2.87;;;2.40;99.90;;;;;;5032661;28;20043;-77
2021/12/28 05:58:02;;;;;;;4.00;2.83;;;2.40;99.90;;;;;;5032328;28;20374;-77
2021/12/28 06:00:28;;;;;;;8.30;2.93;;;2.40;99.90;;;;;;5032523;28;20048;-76
2021/12/28 06:02:55;;;;;;;9.00;3.30;;;2.40;99.90;;;;;;5032387;28;20413;-77
2021/12/28 06:05:21;;;;;;;17.77;9.67;;;2.50;99.90;;;;;;5032269;28;20057;-76
2021/12/28 06:07:46;;;;;;;11.47;7.50;;;2.50;99.90;;;;;;5032222;28;20025;-76
2021/12/28 06:10:14;;;;;;;10.13;3.80;;;2.60;99.90;;;;;;5047411;28;20054;-76
2021/12/28 06:12:40;;;;;;;4.57;2.13;;;2.60;99.90;;;;;;5032550;28;20049;-76
2021/12/28 06:15:06;;;;;;;5.83;2.30;;;2.70;99.90;;;;;;5032396;28;20068;-76
2021/12/28 06:17:32;;;;;;;4.57;1.80;;;2.80;99.90;;;;;;5047612;28;20083;-76
2021/12/28 06:19:57;;;;;;;5.70;2.10;;;2.70;99.90;;;;;;5045891;28;20029;-76
2021/12/28 06:22:23;;;;;;;7.63;2.63;;;2.70;99.90;;;;;;5044498;28;20071;-76
2021/12/28 06:24:49;;;;;;;8.77;4.50;;;2.70;99.90;;;;;;5031735;28;20391;-77
2021/12/28 06:27:15;;;;;;;7.20;3.73;;;2.70;99.90;;;;;;5031167;28;20040;-76
2021/12/28 06:29:41;;;;;;;7.60;4.17;;;2.70;99.90;;;;;;5031252;28;20025;-76
2021/12/28 06:32:07;;;;;;;6.77;2.73;;;2.80;99.90;;;;;;5030875;28;20022;-76
2021/12/28 06:34:32;;;;;;;6.10;3.23;;;2.70;99.90;;;;;;5031144;28;20391;-77
2021/12/28 06:36:58;;;;;;;6.17;3.67;;;2.70;99.90;;;;;;5031436;28;20021;-77
2021/12/28 06:39:26;;;;;;;6.33;3.70;;;2.70;99.90;;;;;;5031095;28;20072;-76
2021/12/28 06:41:52;;;;;;;7.13;2.87;;;2.70;99.90;;;;;;5029375;28;20116;-77
2021/12/28 06:44:17;;;;;;;4.60;2.40;;;2.80;99.90;;;;;;5031864;28;20121;-76
2021/12/28 06:46:43;;;;;;;21.87;10.93;;;2.80;99.90;;;;;;5031010;28;20038;-75
2021/12/28 06:49:09;;;;;;;14.90;6.40;;;2.80;99.90;;;;;;5030867;28;20019;-76
2021/12/28 06:51:34;;;;;;;11.70;6.57;;;2.80;99.90;;;;;;5024620;28;20072;-76
2021/12/28 06:54:00;;;;;;;8.50;4.13;;;2.80;99.90;;;;;;5027612;28;20083;-77
2021/12/28 06:56:43;;;;;;;7.70;4.10;;;2.90;99.90;;;;;;5046686;28;20033;-80
2021/12/28 06:59:09;;;;;;;13.13;6.93;;;2.90;99.90;;;;;;5027727;28;20167;-77
2021/12/28 07:01:34;;;;;;;12.40;4.07;;;2.90;99.90;;;;;;5030677;28;20112;-77
2021/12/28 07:04:00;;;;;;;12.87;4.43;;;2.90;99.90;;;;;;5030995;28;20036;-77
2021/12/28 07:06:27;;;;;;;9.97;4.80;;;3.00;99.90;;;;;;5031645;28;20021;-78
2021/12/28 07:08:53;;;;;;;7.47;3.10;;;3.00;99.90;;;;;;5045008;28;20046;-78
2021/12/28 07:11:19;;;;;;;4.23;2.67;;;3.00;99.90;;;;;;5030013;28;20087;-75
2021/12/28 07:13:45;;;;;;;8.87;3.20;;;3.00;99.90;;;;;;5026930;28;20032;-76
2021/12/28 07:16:12;;;;;;;6.13;3.30;;;3.10;99.90;;;;;;5024002;28;20496;-76
2021/12/28 07:18:37;;;;;;;8.97;3.50;;;3.10;99.90;;;;;;5041967;28;20803;-76
2021/12/28 07:21:05;;;;;;;7.90;2.97;;;3.10;99.90;;;;;;5028082;28;20090;-76
2021/12/28 07:23:31;;;;;;;8.20;2.73;;;3.10;99.90;;;;;;5026226;28;20390;-76
2021/12/28 07:25:57;;;;;;;6.97;2.80;;;3.10;99.90;;;;;;5027001;28;20037;-76
2021/12/28 07:28:24;;;;;;;5.80;2.80;;;3.20;99.90;;;;;;5028653;28;20054;-75
2021/12/28 07:30:50;;;;;;;7.20;2.60;;;3.20;99.90;;;;;;5027653;28;20382;-76
2021/12/28 07:33:15;;;;;;;6.57;2.57;;;3.20;99.90;;;;;;5025824;28;20048;-75
2021/12/28 07:35:41;;;;;;;4.70;2.70;;;3.20;99.90;;;;;;5025757;28;20029;-75
2021/12/28 07:38:07;;;;;;;6.33;3.20;;;3.30;99.90;;;;;;5023906;28;20037;-75
2021/12/28 07:40:33;;;;;;;5.23;2.87;;;3.30;99.90;;;;;;5024310;28;20101;-75
2021/12/28 07:42:58;;;;;;;6.73;2.80;;;3.30;99.90;;;;;;5025466;28;20110;-75
2021/12/28 07:45:24;;;;;;;5.93;3.00;;;3.30;99.90;;;;;;5024011;28;20169;-75
2021/12/28 07:47:50;;;;;;;8.63;3.03;;;3.30;99.90;;;;;;5025536;28;20025;-76
2021/12/28 07:50:17;;;;;;;7.33;2.40;;;3.30;99.90;;;;;;5026172;28;20060;-75
2021/12/28 07:52:43;;;;;;;8.37;2.00;;;3.40;99.90;;;;;;5025217;28;20029;-75
2021/12/28 07:55:10;;;;;;;7.50;2.97;;;3.40;99.90;;;;;;5020855;28;20049;-75
2021/12/28 07:57:37;;;;;;;4.87;2.40;;;3.40;99.90;;;;;;5007675;28;20148;-75
2021/12/28 08:00:06;;;;;;;8.50;2.53;;;3.40;99.90;;;;;;5007507;28;20125;-75
2021/12/28 08:02:32;;;;;;;7.53;2.70;;;3.40;99.90;;;;;;5006115;28;20688;-75
2021/12/28 08:04:58;;;;;;;6.53;2.90;;;3.40;99.90;;;;;;5014100;28;20140;-75
2021/12/28 08:07:23;;;;;;;12.10;5.23;;;3.50;99.90;;;;;;5025536;28;20091;-77
2021/12/28 08:09:49;;;;;;;8.10;4.10;;;3.50;99.90;;;;;;5027065;28;20045;-77
2021/12/28 08:12:14;;;;;;;6.63;3.33;;;3.50;99.90;;;;;;5027271;28;20108;-75
2021/12/28 08:14:41;;;;;;;9.20;3.40;;;3.50;99.90;;;;;;5027107;28;20036;-75
2021/12/28 08:17:06;;;;;;;4.23;2.27;;;3.60;99.90;;;;;;5027175;28;20385;-76
2021/12/28 08:19:32;;;;;;;8.37;3.20;;;3.60;99.90;;;;;;5027059;28;20052;-75
2021/12/28 08:21:58;;;;;;;10.07;3.63;;;3.60;99.90;;;;;;5026063;28;20045;-75
2021/12/28 08:24:23;;;;;;;5.47;2.77;;;3.70;99.90;;;;;;5026592;28;20037;-74
2021/12/28 08:26:49;;;;;;;7.17;2.30;;;3.70;99.90;;;;;;5027375;28;20069;-75
2021/12/28 08:29:14;;;;;;;6.50;2.57;;;3.70;99.90;;;;;;5025323;28;20103;-75
2021/12/28 08:31:40;;;;;;;3.83;2.20;;;3.80;99.90;;;;;;5027500;28;20048;-75
2021/12/28 08:34:05;;;;;;;4.27;2.27;;;3.80;99.90;;;;;;5027445;28;20092;-76
2021/12/28 08:36:31;;;;;;;5.57;2.93;;;3.90;99.90;;;;;;5027888;28;20034;-75
2021/12/28 08:38:57;;;;;;;6.83;2.57;;;3.90;99.90;;;;;;5028013;28;20037;-75
2021/12/28 08:41:22;;;;;;;5.23;2.43;;;3.90;99.90;;;;;;5027778;28;20029;-76
2021/12/28 08:43:49;;;;;;;3.93;2.30;;;3.90;99.90;;;;;;5026787;28;20072;-75
2021/12/28 08:46:17;;;;;;;7.50;3.63;;;3.90;99.90;;;;;;5028302;28;20048;-75
2021/12/28 08:48:42;;;;;;;6.73;2.83;;;4.00;99.90;;;;;;5025816;28;20033;-76
2021/12/28 08:51:08;;;;;;;7.27;2.83;;;4.00;99.90;;;;;;5027213;28;20029;-76
2021/12/28 08:53:34;;;;;;;5.03;2.70;;;4.00;99.90;;;;;;5028104;28;20128;-76
2021/12/28 08:56:00;;;;;;;9.23;3.20;;;4.00;99.90;;;;;;5028699;28;20148;-76
2021/12/28 08:58:26;;;;;;;4.07;2.37;;;4.00;99.90;;;;;;5031847;28;20099;-75
2021/12/28 09:00:51;;;;;;;4.93;2.20;;;4.10;99.90;;;;;;5030905;28;20363;-76
2021/12/28 09:03:17;;;;;;;6.50;2.17;;;4.10;99.90;;;;;;5030908;28;20045;-75
2021/12/28 09:05:43;;;;;;;7.17;2.87;;;4.10;99.90;;;;;;5031660;28;20040;-76
2021/12/28 09:08:13;;;;;;;8.90;2.90;;;4.10;99.90;;;;;;5031499;28;20081;-76
2021/12/28 09:10:39;;;;;;;6.17;2.57;;;4.10;99.90;;;;;;5031812;28;20091;-76
2021/12/28 09:13:07;;;;;;;10.20;2.67;;;4.10;99.90;;;;;;5031768;28;20397;-75
2021/12/28 09:15:34;;;;;;;4.37;2.40;;;4.20;99.90;;;;;;5031927;28;20076;-76
2021/12/28 09:18:00;;;;;;;4.90;2.20;;;4.20;99.90;;;;;;5031697;28;20433;-75
2021/12/28 09:20:26;;;;;;;6.60;2.70;;;4.20;99.90;;;;;;5031516;28;20032;-76
2021/12/28 09:22:53;;;;;;;5.13;2.67;;;4.20;99.90;;;;;;5031282;28;20576;-76
2021/12/28 09:25:19;;;;;;;11.10;3.70;;;4.30;99.90;;;;;;5031510;28;20024;-76
2021/12/28 09:27:46;;;;;;;7.40;3.57;;;4.30;99.90;;;;;;5030152;28;20029;-76
2021/12/28 09:30:12;;;;;;;8.40;3.10;;;4.40;99.90;;;;;;5030609;28;20125;-76
2021/12/28 09:32:39;;;;;;;8.63;3.83;;;4.40;99.90;;;;;;5030933;28;20104;-76
2021/12/28 09:35:05;;;;;;;4.63;2.57;;;4.50;99.90;;;;;;5031315;28;20025;-76
2021/12/28 09:37:33;;;;;;;6.00;2.53;;;4.50;99.90;;;;;;5033285;28;20064;-76
2021/12/28 09:39:59;;;;;;;6.70;2.40;;;4.60;99.90;;;;;;5028473;28;20036;-76
2021/12/28 09:42:25;;;;;;;5.67;2.37;;;4.70;99.90;;;;;;5022762;28;20021;-76
2021/12/28 09:44:51;;;;;;;7.67;2.10;;;4.70;99.90;;;;;;5031776;28;20038;-76
2021/12/28 09:47:18;;;;;;;3.43;1.93;;;4.80;99.90;;;;;;5032704;28;20022;-76
2021/12/28 09:49:45;;;;;;;5.67;1.80;;;4.80;99.90;;;;;;5032654;28;20125;-75
2021/12/28 09:52:12;;;;;;;9.00;2.50;;;4.80;99.90;;;;;;5032773;28;20033;-76
2021/12/28 09:54:39;;;;;;;4.00;2.27;;;4.90;99.90;;;;;;5032748;28;20033;-76
2021/12/28 09:57:04;;;;;;;5.57;2.27;;;4.80;99.90;;;;;;5032687;28;20026;-76
2021/12/28 09:59:31;;;;;;;4.60;2.30;;;4.90;99.90;;;;;;5030649;28;20079;-76
2021/12/28 10:01:59;;;;;;;6.60;2.10;;;5.00;99.90;;;;;;5032439;28;20033;-76
2021/12/28 10:04:26;;;;;;;11.83;2.60;;;5.00;99.90;;;;;;5032437;28;20036;-76
2021/12/28 10:06:51;;;;;;;7.17;2.47;;;5.00;99.90;;;;;;5032486;28;20187;-76
2021/12/28 10:09:21;;;;;;;10.43;3.00;;;5.10;99.90;;;;;;5032630;28;20514;-76
2021/12/28 10:11:55;;;;;;;16.10;3.37;;;5.10;99.90;;;;;;5032580;28;20025;-76
2021/12/28 10:14:26;;;;;;;4.90;2.60;;;5.20;99.90;;;;;;5032962;28;20025;-77
2021/12/28 10:16:59;;;;;;;3.90;2.03;;;5.20;99.90;;;;;;5029165;28;20459;-76
2021/12/28 10:19:36;;;;;;;5.03;2.10;;;5.30;99.90;;;;;;5044237;28;20493;-76
2021/12/28 10:22:18;;;;;;;9.17;2.30;;;5.30;99.90;;;;;;5028956;28;20033;-77
2021/12/28 10:24:44;;;;;;;10.87;2.33;;;5.30;99.90;;;;;;5028863;28;20033;-77
2021/12/28 10:27:15;;;;;;;6.40;2.10;;;5.30;99.90;;;;;;5027533;28;20042;-77
2021/12/28 10:29:42;;;;;;;4.43;2.10;;;5.30;99.90;;;;;;5033836;28;20033;-77
2021/12/28 10:32:25;;;;;;;7.63;2.17;;;5.30;99.90;;;;;;5033655;28;20033;-78
2021/12/28 10:34:58;;;;;;;7.80;2.27;;;5.20;99.90;;;;;;5033906;28;20087;-78
2021/12/28 10:37:30;;;;;;;7.50;2.67;;;5.30;99.90;;;;;;5029214;28;20036;-78
2021/12/28 10:39:58;;;;;;;13.77;2.90;;;5.30;99.90;;;;;;5030695;28;20041;-77
2021/12/28 10:42:56;;;;;;;9.20;3.07;;;5.30;99.90;;;;;;5025932;28;20060;-77
2021/12/28 10:45:31;;;;;;;7.60;2.87;;;5.30;99.90;;;;;;5043426;28;20033;-77
2021/12/28 10:47:56;;;;;;;8.38;3.10;;;5.40;99.90;;;;;;5028903;28;20419;-76
2021/12/28 10:50:36;;;;;;;8.40;3.47;;;5.40;99.90;;;;;;5029374;28;20032;-77
2021/12/28 10:53:06;;;;;;;8.60;3.10;;;5.40;99.90;;;;;;5024872;28;20389;-77
2021/12/28 10:55:32;;;;;;;6.97;2.60;;;5.40;99.90;;;;;;5026063;28;20029;-77
2021/12/28 10:57:58;;;;;;;6.20;2.50;;;5.50;99.90;;;;;;5027277;28;20462;-77
2021/12/28 11:00:33;;;;;;;4.93;2.70;;;5.50;99.90;;;;;;5028162;28;20033;-77
2021/12/28 11:03:31;;;;;;;4.43;2.40;;;5.50;99.90;;;;;;5025873;28;20048;-77
2021/12/28 11:05:59;;;;;;;10.00;2.80;;;5.60;99.90;;;;;;5014669;28;20045;-77
2021/12/28 11:08:27;;;;;;;5.07;2.03;;;5.70;99.90;;;;;;5027892;28;20038;-78
2021/12/28 11:10:56;;;;;;;6.70;2.63;;;5.80;99.90;;;;;;5030757;28;20040;-77
2021/12/28 11:13:26;;;;;;;7.90;3.47;;;5.80;99.90;;;;;;5031664;28;20033;-77
2021/12/28 11:15:52;;;;;;;5.00;2.93;;;5.90;99.90;;;;;;5031294;28;20038;-77
2021/12/28 11:18:19;;;;;;;5.77;2.30;;;5.90;99.90;;;;;;5031421;28;20489;-76
2021/12/28 11:20:48;;;;;;;5.33;2.30;;;6.00;99.90;;;;;;5031820;28;20025;-76
2021/12/28 11:23:22;;;;;;;5.37;1.90;;;6.00;99.90;;;;;;5031006;28;20025;-77
2021/12/28 11:26:07;;;;;;;4.60;2.08;;;6.10;99.90;;;;;;5029254;28;20030;-77
2021/12/28 11:28:33;;;;;;;8.68;2.03;;;6.10;99.90;;;;;;5030294;28;20026;-76
2021/12/28 11:31:06;;;;;;;6.03;1.50;;;6.20;99.90;;;;;;5030702;28;20064;-77
2021/12/28 11:34:00;;;;;;;4.43;1.70;;;6.20;99.90;;;;;;5029780;28;20529;-77
2021/12/28 11:36:36;;;;;;;5.43;1.60;;;6.30;99.90;;;;;;5030377;28;20144;-78
2021/12/28 11:39:05;;;;;;;4.63;1.80;;;6.30;99.90;;;;;;5027094;28;20367;-76
2021/12/28 11:41:31;;;;;;;3.50;1.67;;;6.50;99.90;;;;;;5027411;28;20124;-76
2021/12/28 11:43:58;;;;;;;5.23;1.80;;;6.50;99.90;;;;;;5027716;28;20033;-76
2021/12/28 11:46:24;;;;;;;4.30;1.80;;;6.60;99.90;;;;;;5027269;28;20029;-76
2021/12/28 11:48:52;;;;;;;3.17;1.63;;;6.70;99.90;;;;;;5042694;28;20041;-76
2021/12/28 11:51:20;;;;;;;4.20;1.50;;;6.70;99.90;;;;;;5024827;28;20521;-78
2021/12/28 11:53:47;;;;;;;8.30;1.60;;;6.80;99.90;;;;;;5026929;28;20438;-78
2021/12/28 11:56:17;;;;;;;3.90;1.80;;;6.90;99.90;;;;;;5028633;28;20056;-78
2021/12/28 11:58:59;;;;;;;5.57;1.43;;;6.90;99.90;;;;;;5028160;28;20462;-77
2021/12/28 12:01:41;;;;;;;2.70;1.33;;;7.00;99.90;;;;;;5009680;28;20390;-77
2021/12/28 12:04:34;;;;;;;5.10;1.30;;;7.00;99.90;;;;;;5039050;28;20123;-77
2021/12/28 12:07:09;;;;;;;2.50;1.60;;;7.10;99.90;;;;;;5035533;28;20088;-77
2021/12/28 12:09:57;;;;;;;2.90;1.40;;;7.10;99.90;;;;;;5027419;28;20072;-77
2021/12/28 12:12:26;;;;;;;3.57;1.40;;;7.10;99.90;;;;;;5029590;28;20037;-77
2021/12/28 12:14:55;;;;;;;3.20;1.30;;;7.20;99.90;;;;;;5028500;28;20022;-77
2021/12/28 12:20:18;;;;;;;2.13;1.50;;;7.40;99.90;;;;;;5028192;28;20124;-77
2021/12/28 12:22:50;;;;;;;2.40;1.17;;;7.40;99.90;;;;;;5030573;28;20022;-77
2021/12/28 12:25:50;;;;;;;3.10;1.60;;;7.40;99.90;;;;;;5030316;28;20025;-76
2021/12/28 12:28:29;;;;;;;2.60;1.30;;;7.50;99.90;;;;;;5029253;28;20224;-76
2021/12/28 12:30:57;;;;;;;3.27;1.20;;;7.60;99.90;;;;;;5047907;28;20442;-76
2021/12/28 12:33:32;;;;;;;2.63;1.10;;;7.70;99.90;;;;;;5032973;28;20033;-76
2021/12/28 12:35:59;;;;;;;3.33;1.30;;;7.80;99.90;;;;;;5029325;28;20112;-77
2021/12/28 12:38:25;;;;;;;2.43;1.30;;;7.90;99.90;;;;;;5032167;28;20029;-76
2021/12/28 12:40:56;;;;;;;2.60;1.43;;;8.00;99.90;;;;;;5032007;28;20501;-76
2021/12/28 12:43:28;;;;;;;2.00;1.40;;;8.10;99.90;;;;;;5030801;28;20025;-76
2021/12/28 12:46:04;;;;;;;2.13;1.30;;;8.20;99.90;;;;;;5030439;28;20190;-76
2021/12/28 12:48:33;;;;;;;4.30;1.43;;;8.30;99.90;;;;;;5028165;28;20429;-75
2021/12/28 12:51:24;;;;;;;2.57;1.50;;;8.30;99.90;;;;;;5030666;28;20086;-76
2021/12/28 12:54:16;;;;;;;2.37;1.37;;;8.40;99.90;;;;;;5047021;28;20084;-76
2021/12/28 12:56:43;;;;;;;2.20;1.40;;;8.60;99.90;;;;;;5045289;28;20040;-76
2021/12/28 12:59:20;;;;;;;4.57;1.60;;;8.70;99.90;;;;;;5028524;28;20602;-75
2021/12/28 13:01:49;;;;;;;2.30;1.30;;;8.70;99.90;;;;;;5030867;28;20448;-76
2021/12/28 13:04:26;;;;;;;2.23;1.40;;;8.80;99.90;;;;;;5028467;28;20821;-76
2021/12/28 13:07:12;;;;;;;2.30;1.33;;;8.90;99.90;;;;;;5026283;28;20040;-76